sensor_id;sensor_type;location;lat;lon;timestamp;P1;durP1;ratioP1;P2;durP2;ratioP2
15256;SDS011;7731;50.720;6.912;2023-06-22T00:01:58;9.45;;;8.35;;
15256;SDS011;7731;50.720;6.912;2023-06-22T00:04:30;11.23;;;8.18;;
15256;SDS011;7731;50.720;6.912;2023-06-22T00:07:00;9.38;;;8.45;;
15256;SDS011;7731;50.720;6.912;2023-06-22T00:09:31;9.68;;;7.15;;
15256;SDS011;7731;50.720;6.912;2023-06-22T00:12:01;9.00;;;6.88;;
15256;SDS011;7731;50.720;6.912;2023-06-22T00:17:28;8.18;;;7.38;;
15256;SDS011;7731;50.720;6.912;2023-06-22T00:20:01;8.63;;;7.82;;
15256;SDS011;7731;50.720;6.912;2023-06-22T00:22:36;9.15;;;7.38;;
15256;SDS011;7731;50.720;6.912;2023-06-22T00:25:07;8.52;;;7.25;;
15256;SDS011;7731;50.720;6.912;2023-06-22T00:27:38;10.45;;;7.40;;
15256;SDS011;7731;50.720;6.912;2023-06-22T00:30:18;8.70;;;7.50;;
15256;SDS011;7731;50.720;6.912;2023-06-22T00:32:52;8.80;;;7.93;;
15256;SDS011;7731;50.720;6.912;2023-06-22T00:35:25;8.60;;;7.78;;
15256;SDS011;7731;50.720;6.912;2023-06-22T00:37:56;9.73;;;7.18;;
15256;SDS011;7731;50.720;6.912;2023-06-22T00:40:29;10.13;;;7.85;;
15256;SDS011;7731;50.720;6.912;2023-06-22T00:43:01;8.57;;;7.22;;
15256;SDS011;7731;50.720;6.912;2023-06-22T00:45:35;11.35;;;8.13;;
15256;SDS011;7731;50.720;6.912;2023-06-22T00:48:10;9.23;;;7.85;;
15256;SDS011;7731;50.720;6.912;2023-06-22T00:50:43;8.73;;;7.18;;
15256;SDS011;7731;50.720;6.912;2023-06-22T00:53:15;8.50;;;6.80;;
15256;SDS011;7731;50.720;6.912;2023-06-22T00:55:46;10.52;;;7.47;;
15256;SDS011;7731;50.720;6.912;2023-06-22T00:58:18;8.48;;;7.35;;
15256;SDS011;7731;50.720;6.912;2023-06-22T01:03:40;7.20;;;6.45;;
15256;SDS011;7731;50.720;6.912;2023-06-22T01:06:14;8.80;;;7.20;;
15256;SDS011;7731;50.720;6.912;2023-06-22T01:08:56;7.75;;;6.80;;
15256;SDS011;7731;50.720;6.912;2023-06-22T01:11:36;8.80;;;7.45;;
15256;SDS011;7731;50.720;6.912;2023-06-22T01:14:14;10.35;;;6.78;;
15256;SDS011;7731;50.720;6.912;2023-06-22T01:17:00;9.10;;;7.38;;
15256;SDS011;7731;50.720;6.912;2023-06-22T01:19:35;8.60;;;7.53;;
15256;SDS011;7731;50.720;6.912;2023-06-22T01:22:15;8.02;;;6.80;;
15256;SDS011;7731;50.720;6.912;2023-06-22T01:24:52;8.85;;;7.95;;
15256;SDS011;7731;50.720;6.912;2023-06-22T01:27:39;9.98;;;8.07;;
15256;SDS011;7731;50.720;6.912;2023-06-22T01:30:35;9.38;;;7.63;;
15256;SDS011;7731;50.720;6.912;2023-06-22T01:33:06;8.55;;;7.70;;
15256;SDS011;7731;50.720;6.912;2023-06-22T01:35:41;10.50;;;8.20;;
15256;SDS011;7731;50.720;6.912;2023-06-22T01:38:16;10.90;;;7.68;;
15256;SDS011;7731;50.720;6.912;2023-06-22T01:40:50;11.13;;;7.78;;
15256;SDS011;7731;50.720;6.912;2023-06-22T01:43:21;11.82;;;7.68;;
15256;SDS011;7731;50.720;6.912;2023-06-22T01:46:00;9.18;;;8.38;;
15256;SDS011;7731;50.720;6.912;2023-06-22T01:48:32;11.63;;;8.60;;
15256;SDS011;7731;50.720;6.912;2023-06-22T01:51:03;13.23;;;8.50;;
15256;SDS011;7731;50.720;6.912;2023-06-22T01:53:33;12.65;;;8.57;;
15256;SDS011;7731;50.720;6.912;2023-06-22T01:56:03;12.05;;;8.02;;
15256;SDS011;7731;50.720;6.912;2023-06-22T01:58:34;10.43;;;8.32;;
15256;SDS011;7731;50.720;6.912;2023-06-22T02:01:26;12.00;;;8.32;;
15256;SDS011;7731;50.720;6.912;2023-06-22T02:04:06;13.40;;;8.80;;
15256;SDS011;7731;50.720;6.912;2023-06-22T02:06:49;12.73;;;8.75;;
15256;SDS011;7731;50.720;6.912;2023-06-22T02:09:29;16.10;;;9.18;;
15256;SDS011;7731;50.720;6.912;2023-06-22T02:12:03;12.93;;;7.75;;
15256;SDS011;7731;50.720;6.912;2023-06-22T02:14:35;15.55;;;8.80;;
15256;SDS011;7731;50.720;6.912;2023-06-22T02:17:10;14.75;;;9.10;;
15256;SDS011;7731;50.720;6.912;2023-06-22T02:19:40;12.00;;;8.23;;
15256;SDS011;7731;50.720;6.912;2023-06-22T02:22:21;15.80;;;8.60;;
15256;SDS011;7731;50.720;6.912;2023-06-22T02:24:51;10.40;;;8.00;;
15256;SDS011;7731;50.720;6.912;2023-06-22T02:27:25;15.07;;;8.60;;
15256;SDS011;7731;50.720;6.912;2023-06-22T02:29:55;13.88;;;8.90;;
15256;SDS011;7731;50.720;6.912;2023-06-22T02:32:28;14.10;;;7.65;;
15256;SDS011;7731;50.720;6.912;2023-06-22T02:35:07;12.35;;;8.52;;
15256;SDS011;7731;50.720;6.912;2023-06-22T02:37:38;12.07;;;7.80;;
15256;SDS011;7731;50.720;6.912;2023-06-22T02:40:09;14.18;;;8.43;;
15256;SDS011;7731;50.720;6.912;2023-06-22T02:42:40;16.02;;;8.93;;
15256;SDS011;7731;50.720;6.912;2023-06-22T02:45:10;12.95;;;8.15;;
15256;SDS011;7731;50.720;6.912;2023-06-22T02:47:43;11.05;;;8.30;;
15256;SDS011;7731;50.720;6.912;2023-06-22T02:50:14;17.90;;;9.20;;
15256;SDS011;7731;50.720;6.912;2023-06-22T02:52:44;11.32;;;8.38;;
15256;SDS011;7731;50.720;6.912;2023-06-22T02:55:21;15.10;;;7.75;;
15256;SDS011;7731;50.720;6.912;2023-06-22T02:57:51;15.85;;;9.32;;
15256;SDS011;7731;50.720;6.912;2023-06-22T03:00:21;15.82;;;8.77;;
15256;SDS011;7731;50.720;6.912;2023-06-22T03:03:00;22.45;;;10.30;;
15256;SDS011;7731;50.720;6.912;2023-06-22T03:05:33;15.38;;;9.35;;
15256;SDS011;7731;50.720;6.912;2023-06-22T03:08:04;11.77;;;8.90;;
15256;SDS011;7731;50.720;6.912;2023-06-22T03:10:34;16.30;;;9.80;;
15256;SDS011;7731;50.720;6.912;2023-06-22T03:13:04;12.07;;;8.93;;
15256;SDS011;7731;50.720;6.912;2023-06-22T03:15:35;14.27;;;9.63;;
15256;SDS011;7731;50.720;6.912;2023-06-22T03:18:08;11.82;;;8.75;;
15256;SDS011;7731;50.720;6.912;2023-06-22T03:20:38;10.85;;;8.48;;
15256;SDS011;7731;50.720;6.912;2023-06-22T03:23:08;11.75;;;9.13;;
15256;SDS011;7731;50.720;6.912;2023-06-22T03:25:42;11.73;;;8.65;;
15256;SDS011;7731;50.720;6.912;2023-06-22T03:28:15;12.20;;;9.35;;
15256;SDS011;7731;50.720;6.912;2023-06-22T03:30:47;13.10;;;9.43;;
15256;SDS011;7731;50.720;6.912;2023-06-22T03:33:20;10.98;;;9.55;;
15256;SDS011;7731;50.720;6.912;2023-06-22T03:35:51;11.35;;;8.63;;
15256;SDS011;7731;50.720;6.912;2023-06-22T03:38:24;12.50;;;8.98;;
15256;SDS011;7731;50.720;6.912;2023-06-22T03:40:57;13.65;;;9.88;;
15256;SDS011;7731;50.720;6.912;2023-06-22T03:43:31;11.77;;;9.65;;
15256;SDS011;7731;50.720;6.912;2023-06-22T03:46:01;10.63;;;9.55;;
15256;SDS011;7731;50.720;6.912;2023-06-22T03:48:34;13.13;;;10.02;;
15256;SDS011;7731;50.720;6.912;2023-06-22T03:51:08;11.32;;;10.05;;
15256;SDS011;7731;50.720;6.912;2023-06-22T03:53:38;10.57;;;8.50;;
15256;SDS011;7731;50.720;6.912;2023-06-22T03:56:08;12.23;;;8.05;;
15256;SDS011;7731;50.720;6.912;2023-06-22T03:58:38;14.63;;;9.40;;
15256;SDS011;7731;50.720;6.912;2023-06-22T04:01:11;10.50;;;9.50;;
15256;SDS011;7731;50.720;6.912;2023-06-22T04:03:46;13.23;;;9.63;;
15256;SDS011;7731;50.720;6.912;2023-06-22T04:06:16;10.73;;;9.18;;
15256;SDS011;7731;50.720;6.912;2023-06-22T04:08:50;10.48;;;9.38;;
15256;SDS011;7731;50.720;6.912;2023-06-22T04:11:20;9.70;;;8.70;;
15256;SDS011;7731;50.720;6.912;2023-06-22T04:13:50;10.88;;;9.23;;
15256;SDS011;7731;50.720;6.912;2023-06-22T04:16:29;9.18;;;8.25;;
15256;SDS011;7731;50.720;6.912;2023-06-22T04:19:04;11.05;;;8.60;;
15256;SDS011;7731;50.720;6.912;2023-06-22T04:21:40;15.65;;;9.00;;
15256;SDS011;7731;50.720;6.912;2023-06-22T04:24:11;15.65;;;9.32;;
15256;SDS011;7731;50.720;6.912;2023-06-22T04:26:41;12.43;;;8.63;;
15256;SDS011;7731;50.720;6.912;2023-06-22T04:29:14;11.38;;;9.43;;
15256;SDS011;7731;50.720;6.912;2023-06-22T04:31:55;12.73;;;9.75;;
15256;SDS011;7731;50.720;6.912;2023-06-22T04:34:32;10.88;;;9.65;;
15256;SDS011;7731;50.720;6.912;2023-06-22T04:37:02;17.02;;;9.88;;
15256;SDS011;7731;50.720;6.912;2023-06-22T04:39:33;14.35;;;10.50;;
15256;SDS011;7731;50.720;6.912;2023-06-22T04:42:04;12.27;;;9.43;;
15256;SDS011;7731;50.720;6.912;2023-06-22T04:44:35;13.07;;;9.77;;
15256;SDS011;7731;50.720;6.912;2023-06-22T04:47:06;11.88;;;10.55;;
15256;SDS011;7731;50.720;6.912;2023-06-22T04:49:39;11.85;;;10.60;;
15256;SDS011;7731;50.720;6.912;2023-06-22T04:52:11;13.50;;;10.48;;
15256;SDS011;7731;50.720;6.912;2023-06-22T04:54:47;14.05;;;10.90;;
15256;SDS011;7731;50.720;6.912;2023-06-22T04:57:22;12.98;;;10.52;;
15256;SDS011;7731;50.720;6.912;2023-06-22T05:00:02;14.23;;;10.48;;
15256;SDS011;7731;50.720;6.912;2023-06-22T05:02:43;14.52;;;10.88;;
15256;SDS011;7731;50.720;6.912;2023-06-22T05:05:31;14.30;;;11.18;;
15256;SDS011;7731;50.720;6.912;2023-06-22T05:08:02;12.75;;;10.60;;
15256;SDS011;7731;50.720;6.912;2023-06-22T05:10:35;12.32;;;10.18;;
15256;SDS011;7731;50.720;6.912;2023-06-22T05:13:21;14.38;;;10.52;;
15256;SDS011;7731;50.720;6.912;2023-06-22T05:15:54;11.55;;;9.52;;
15256;SDS011;7731;50.720;6.912;2023-06-22T05:18:27;12.25;;;8.80;;
15256;SDS011;7731;50.720;6.912;2023-06-22T05:21:04;10.00;;;8.15;;
15256;SDS011;7731;50.720;6.912;2023-06-22T05:23:34;10.27;;;8.07;;
15256;SDS011;7731;50.720;6.912;2023-06-22T05:26:04;14.05;;;8.75;;
15256;SDS011;7731;50.720;6.912;2023-06-22T05:28:36;11.60;;;8.02;;
15256;SDS011;7731;50.720;6.912;2023-06-22T05:31:12;11.02;;;8.02;;
15256;SDS011;7731;50.720;6.912;2023-06-22T05:33:47;10.15;;;9.15;;
15256;SDS011;7731;50.720;6.912;2023-06-22T05:36:27;10.30;;;9.05;;
15256;SDS011;7731;50.720;6.912;2023-06-22T05:38:59;11.50;;;8.75;;
15256;SDS011;7731;50.720;6.912;2023-06-22T05:41:42;12.70;;;9.45;;
15256;SDS011;7731;50.720;6.912;2023-06-22T05:44:15;10.35;;;8.38;;
15256;SDS011;7731;50.720;6.912;2023-06-22T05:46:55;15.48;;;9.00;;
15256;SDS011;7731;50.720;6.912;2023-06-22T05:49:25;11.15;;;8.60;;
15256;SDS011;7731;50.720;6.912;2023-06-22T05:52:02;10.57;;;9.02;;
15256;SDS011;7731;50.720;6.912;2023-06-22T05:54:40;16.75;;;9.95;;
15256;SDS011;7731;50.720;6.912;2023-06-22T05:57:11;15.88;;;9.57;;
15256;SDS011;7731;50.720;6.912;2023-06-22T05:59:41;13.00;;;9.18;;
15256;SDS011;7731;50.720;6.912;2023-06-22T06:02:11;13.32;;;9.20;;
15256;SDS011;7731;50.720;6.912;2023-06-22T06:04:42;12.02;;;9.90;;
15256;SDS011;7731;50.720;6.912;2023-06-22T06:07:15;14.23;;;9.80;;
15256;SDS011;7731;50.720;6.912;2023-06-22T06:09:45;14.73;;;10.65;;
15256;SDS011;7731;50.720;6.912;2023-06-22T06:12:18;11.48;;;10.15;;
15256;SDS011;7731;50.720;6.912;2023-06-22T06:14:49;13.00;;;9.68;;
15256;SDS011;7731;50.720;6.912;2023-06-22T06:17:27;13.95;;;10.23;;
15256;SDS011;7731;50.720;6.912;2023-06-22T06:19:58;13.38;;;10.32;;
15256;SDS011;7731;50.720;6.912;2023-06-22T06:22:38;12.15;;;10.82;;
15256;SDS011;7731;50.720;6.912;2023-06-22T06:25:11;11.75;;;10.65;;
15256;SDS011;7731;50.720;6.912;2023-06-22T06:27:45;12.32;;;10.95;;
15256;SDS011;7731;50.720;6.912;2023-06-22T06:30:17;12.55;;;11.45;;
15256;SDS011;7731;50.720;6.912;2023-06-22T06:32:48;12.70;;;9.48;;
15256;SDS011;7731;50.720;6.912;2023-06-22T06:35:23;16.83;;;11.05;;
15256;SDS011;7731;50.720;6.912;2023-06-22T06:37:59;24.92;;;11.57;;
15256;SDS011;7731;50.720;6.912;2023-06-22T06:40:29;17.20;;;9.13;;
15256;SDS011;7731;50.720;6.912;2023-06-22T06:43:12;19.92;;;9.77;;
15256;SDS011;7731;50.720;6.912;2023-06-22T06:45:42;15.35;;;10.25;;
15256;SDS011;7731;50.720;6.912;2023-06-22T06:48:14;21.85;;;10.38;;
15256;SDS011;7731;50.720;6.912;2023-06-22T06:50:59;11.68;;;9.23;;
15256;SDS011;7731;50.720;6.912;2023-06-22T06:53:35;12.32;;;9.95;;
15256;SDS011;7731;50.720;6.912;2023-06-22T06:56:06;15.73;;;9.45;;
15256;SDS011;7731;50.720;6.912;2023-06-22T06:58:38;10.38;;;8.68;;
15256;SDS011;7731;50.720;6.912;2023-06-22T07:01:12;17.35;;;10.02;;
15256;SDS011;7731;50.720;6.912;2023-06-22T07:03:44;16.52;;;10.05;;
15256;SDS011;7731;50.720;6.912;2023-06-22T07:06:15;11.90;;;10.13;;
15256;SDS011;7731;50.720;6.912;2023-06-22T07:08:55;15.55;;;10.52;;
15256;SDS011;7731;50.720;6.912;2023-06-22T07:11:30;10.82;;;9.75;;
15256;SDS011;7731;50.720;6.912;2023-06-22T07:14:08;14.38;;;10.43;;
15256;SDS011;7731;50.720;6.912;2023-06-22T07:16:47;10.73;;;9.50;;
15256;SDS011;7731;50.720;6.912;2023-06-22T07:19:23;11.88;;;9.82;;
15256;SDS011;7731;50.720;6.912;2023-06-22T07:21:55;12.10;;;10.27;;
15256;SDS011;7731;50.720;6.912;2023-06-22T07:24:30;10.15;;;9.25;;
15256;SDS011;7731;50.720;6.912;2023-06-22T07:27:00;10.98;;;9.98;;
15256;SDS011;7731;50.720;6.912;2023-06-22T07:29:36;11.18;;;9.50;;
15256;SDS011;7731;50.720;6.912;2023-06-22T07:32:09;11.00;;;9.98;;
15256;SDS011;7731;50.720;6.912;2023-06-22T07:34:49;10.38;;;9.05;;
15256;SDS011;7731;50.720;6.912;2023-06-22T07:37:19;10.10;;;9.20;;
15256;SDS011;7731;50.720;6.912;2023-06-22T07:39:53;9.23;;;8.10;;
15256;SDS011;7731;50.720;6.912;2023-06-22T07:42:27;15.23;;;10.52;;
15256;SDS011;7731;50.720;6.912;2023-06-22T07:45:02;12.30;;;10.45;;
15256;SDS011;7731;50.720;6.912;2023-06-22T07:47:35;10.23;;;8.75;;
15256;SDS011;7731;50.720;6.912;2023-06-22T07:50:06;8.88;;;8.07;;
15256;SDS011;7731;50.720;6.912;2023-06-22T07:52:37;10.82;;;9.82;;
15256;SDS011;7731;50.720;6.912;2023-06-22T07:55:10;11.25;;;10.25;;
15256;SDS011;7731;50.720;6.912;2023-06-22T07:57:43;11.52;;;10.32;;
15256;SDS011;7731;50.720;6.912;2023-06-22T08:00:13;11.75;;;10.52;;
15256;SDS011;7731;50.720;6.912;2023-06-22T08:02:45;11.80;;;10.80;;
15256;SDS011;7731;50.720;6.912;2023-06-22T08:05:16;10.93;;;9.88;;
15256;SDS011;7731;50.720;6.912;2023-06-22T08:07:49;11.75;;;10.75;;
15256;SDS011;7731;50.720;6.912;2023-06-22T08:10:25;10.45;;;9.55;;
15256;SDS011;7731;50.720;6.912;2023-06-22T08:12:55;10.23;;;9.32;;
15256;SDS011;7731;50.720;6.912;2023-06-22T08:15:26;11.40;;;10.35;;
15256;SDS011;7731;50.720;6.912;2023-06-22T08:17:57;10.77;;;9.68;;
15256;SDS011;7731;50.720;6.912;2023-06-22T08:20:27;10.82;;;9.90;;
15256;SDS011;7731;50.720;6.912;2023-06-22T08:22:58;11.38;;;10.48;;
15256;SDS011;7731;50.720;6.912;2023-06-22T08:25:35;12.13;;;11.07;;
15256;SDS011;7731;50.720;6.912;2023-06-22T08:28:08;12.18;;;11.07;;
15256;SDS011;7731;50.720;6.912;2023-06-22T08:30:39;13.23;;;11.88;;
15256;SDS011;7731;50.720;6.912;2023-06-22T08:33:09;11.32;;;10.32;;
15256;SDS011;7731;50.720;6.912;2023-06-22T08:35:48;12.38;;;10.55;;
15256;SDS011;7731;50.720;6.912;2023-06-22T08:38:18;11.73;;;10.82;;
15256;SDS011;7731;50.720;6.912;2023-06-22T08:40:51;11.30;;;10.40;;
15256;SDS011;7731;50.720;6.912;2023-06-22T08:43:22;12.23;;;11.10;;
15256;SDS011;7731;50.720;6.912;2023-06-22T08:45:52;11.80;;;10.57;;
15256;SDS011;7731;50.720;6.912;2023-06-22T08:48:25;10.77;;;9.77;;
15256;SDS011;7731;50.720;6.912;2023-06-22T08:50:57;11.75;;;10.57;;
15256;SDS011;7731;50.720;6.912;2023-06-22T08:53:28;11.32;;;10.32;;
15256;SDS011;7731;50.720;6.912;2023-06-22T08:56:04;11.02;;;10.02;;
15256;SDS011;7731;50.720;6.912;2023-06-22T08:58:42;11.27;;;10.25;;
15256;SDS011;7731;50.720;6.912;2023-06-22T09:01:13;11.45;;;10.25;;
15256;SDS011;7731;50.720;6.912;2023-06-22T09:03:44;11.45;;;10.45;;
15256;SDS011;7731;50.720;6.912;2023-06-22T09:06:21;13.20;;;10.45;;
15256;SDS011;7731;50.720;6.912;2023-06-22T09:08:54;10.63;;;9.45;;
15256;SDS011;7731;50.720;6.912;2023-06-22T09:11:28;10.93;;;9.82;;
15256;SDS011;7731;50.720;6.912;2023-06-22T09:13:59;11.30;;;10.40;;
15256;SDS011;7731;50.720;6.912;2023-06-22T09:16:30;11.43;;;10.43;;
15256;SDS011;7731;50.720;6.912;2023-06-22T09:19:00;11.55;;;10.55;;
15256;SDS011;7731;50.720;6.912;2023-06-22T09:21:31;10.50;;;9.60;;
15256;SDS011;7731;50.720;6.912;2023-06-22T09:24:02;10.57;;;9.68;;
15256;SDS011;7731;50.720;6.912;2023-06-22T09:26:35;10.07;;;9.18;;
15256;SDS011;7731;50.720;6.912;2023-06-22T09:29:09;10.13;;;9.27;;
15256;SDS011;7731;50.720;6.912;2023-06-22T09:31:39;10.18;;;9.27;;
15256;SDS011;7731;50.720;6.912;2023-06-22T09:34:10;8.93;;;8.13;;
15256;SDS011;7731;50.720;6.912;2023-06-22T09:36:41;10.23;;;9.18;;
15256;SDS011;7731;50.720;6.912;2023-06-22T09:39:11;10.10;;;9.10;;
15256;SDS011;7731;50.720;6.912;2023-06-22T09:41:44;10.23;;;9.20;;
15256;SDS011;7731;50.720;6.912;2023-06-22T09:44:15;11.32;;;10.35;;
15256;SDS011;7731;50.720;6.912;2023-06-22T09:46:48;10.65;;;9.68;;
15256;SDS011;7731;50.720;6.912;2023-06-22T09:49:18;10.68;;;9.68;;
15256;SDS011;7731;50.720;6.912;2023-06-22T09:52:09;10.65;;;9.75;;
15256;SDS011;7731;50.720;6.912;2023-06-22T09:54:39;10.18;;;9.38;;
15256;SDS011;7731;50.720;6.912;2023-06-22T09:57:12;10.55;;;9.75;;
15256;SDS011;7731;50.720;6.912;2023-06-22T09:59:43;10.65;;;9.60;;
15256;SDS011;7731;50.720;6.912;2023-06-22T10:02:23;11.30;;;10.23;;
15256;SDS011;7731;50.720;6.912;2023-06-22T10:04:53;11.70;;;10.68;;
15256;SDS011;7731;50.720;6.912;2023-06-22T10:07:29;12.10;;;10.93;;
15256;SDS011;7731;50.720;6.912;2023-06-22T10:10:02;12.25;;;11.13;;
15256;SDS011;7731;50.720;6.912;2023-06-22T10:12:47;14.05;;;12.55;;
15256;SDS011;7731;50.720;6.912;2023-06-22T10:15:25;13.65;;;12.43;;
15256;SDS011;7731;50.720;6.912;2023-06-22T10:17:55;12.98;;;11.95;;
15256;SDS011;7731;50.720;6.912;2023-06-22T10:20:26;13.93;;;12.73;;
15256;SDS011;7731;50.720;6.912;2023-06-22T10:22:56;12.50;;;11.40;;
15256;SDS011;7731;50.720;6.912;2023-06-22T10:25:26;13.82;;;12.50;;
15256;SDS011;7731;50.720;6.912;2023-06-22T10:28:03;14.43;;;12.98;;
15256;SDS011;7731;50.720;6.912;2023-06-22T10:30:33;13.60;;;12.30;;
15256;SDS011;7731;50.720;6.912;2023-06-22T10:33:16;14.30;;;12.90;;
15256;SDS011;7731;50.720;6.912;2023-06-22T10:35:47;14.95;;;13.40;;
15256;SDS011;7731;50.720;6.912;2023-06-22T10:38:17;13.88;;;12.52;;
15256;SDS011;7731;50.720;6.912;2023-06-22T10:40:50;15.38;;;13.82;;
15256;SDS011;7731;50.720;6.912;2023-06-22T10:43:25;16.33;;;14.60;;
15256;SDS011;7731;50.720;6.912;2023-06-22T10:45:56;21.27;;;16.10;;
15256;SDS011;7731;50.720;6.912;2023-06-22T10:48:26;28.65;;;19.50;;
15256;SDS011;7731;50.720;6.912;2023-06-22T10:51:00;23.17;;;18.90;;
15256;SDS011;7731;50.720;6.912;2023-06-22T10:53:30;20.58;;;18.52;;
15256;SDS011;7731;50.720;6.912;2023-06-22T10:56:01;20.52;;;18.50;;
15256;SDS011;7731;50.720;6.912;2023-06-22T10:58:45;20.83;;;18.77;;
15256;SDS011;7731;50.720;6.912;2023-06-22T11:01:16;20.70;;;18.70;;
15256;SDS011;7731;50.720;6.912;2023-06-22T11:04:00;20.42;;;18.48;;
15256;SDS011;7731;50.720;6.912;2023-06-22T11:06:31;21.20;;;19.30;;
15256;SDS011;7731;50.720;6.912;2023-06-22T11:09:01;22.85;;;20.55;;
15256;SDS011;7731;50.720;6.912;2023-06-22T11:11:43;18.73;;;17.13;;
15256;SDS011;7731;50.720;6.912;2023-06-22T11:14:22;18.90;;;16.98;;
15256;SDS011;7731;50.720;6.912;2023-06-22T11:16:52;18.23;;;16.65;;
15256;SDS011;7731;50.720;6.912;2023-06-22T11:19:23;19.25;;;17.45;;
15256;SDS011;7731;50.720;6.912;2023-06-22T11:21:53;19.90;;;17.90;;
15256;SDS011;7731;50.720;6.912;2023-06-22T11:24:30;18.77;;;17.17;;
15256;SDS011;7731;50.720;6.912;2023-06-22T11:27:04;19.02;;;17.50;;
15256;SDS011;7731;50.720;6.912;2023-06-22T11:29:38;19.80;;;18.00;;
15256;SDS011;7731;50.720;6.912;2023-06-22T11:32:08;18.17;;;16.42;;
15256;SDS011;7731;50.720;6.912;2023-06-22T11:34:43;17.70;;;16.15;;
15256;SDS011;7731;50.720;6.912;2023-06-22T11:37:13;14.88;;;13.38;;
15256;SDS011;7731;50.720;6.912;2023-06-22T11:39:46;15.10;;;13.60;;
15256;SDS011;7731;50.720;6.912;2023-06-22T11:42:31;15.73;;;13.90;;
15256;SDS011;7731;50.720;6.912;2023-06-22T11:45:10;14.60;;;13.30;;
15256;SDS011;7731;50.720;6.912;2023-06-22T11:47:41;14.30;;;13.10;;
15256;SDS011;7731;50.720;6.912;2023-06-22T11:50:11;13.93;;;12.60;;
15256;SDS011;7731;50.720;6.912;2023-06-22T11:52:41;15.15;;;13.57;;
15256;SDS011;7731;50.720;6.912;2023-06-22T11:55:21;12.15;;;11.00;;
15256;SDS011;7731;50.720;6.912;2023-06-22T11:57:53;12.32;;;11.23;;
15256;SDS011;7731;50.720;6.912;2023-06-22T12:00:35;11.55;;;10.65;;
15256;SDS011;7731;50.720;6.912;2023-06-22T12:03:17;11.35;;;10.43;;
15256;SDS011;7731;50.720;6.912;2023-06-22T12:05:49;12.55;;;11.45;;
15256;SDS011;7731;50.720;6.912;2023-06-22T12:08:20;10.90;;;9.90;;
15256;SDS011;7731;50.720;6.912;2023-06-22T12:10:51;12.63;;;11.52;;
15256;SDS011;7731;50.720;6.912;2023-06-22T12:13:26;13.13;;;11.93;;
15256;SDS011;7731;50.720;6.912;2023-06-22T12:15:59;13.90;;;12.50;;
15256;SDS011;7731;50.720;6.912;2023-06-22T12:18:29;13.23;;;11.90;;
15256;SDS011;7731;50.720;6.912;2023-06-22T12:20:59;14.38;;;13.07;;
15256;SDS011;7731;50.720;6.912;2023-06-22T12:23:33;12.43;;;11.20;;
15256;SDS011;7731;50.720;6.912;2023-06-22T12:26:04;13.68;;;12.25;;
15256;SDS011;7731;50.720;6.912;2023-06-22T12:28:37;14.30;;;12.90;;
15256;SDS011;7731;50.720;6.912;2023-06-22T12:31:12;12.65;;;11.55;;
15256;SDS011;7731;50.720;6.912;2023-06-22T12:33:44;12.20;;;11.07;;
15256;SDS011;7731;50.720;6.912;2023-06-22T12:36:16;11.75;;;10.75;;
15256;SDS011;7731;50.720;6.912;2023-06-22T12:38:46;13.18;;;11.77;;
15256;SDS011;7731;50.720;6.912;2023-06-22T12:41:19;12.20;;;11.00;;
15256;SDS011;7731;50.720;6.912;2023-06-22T12:43:50;13.95;;;11.70;;
15256;SDS011;7731;50.720;6.912;2023-06-22T12:46:25;12.02;;;11.02;;
15256;SDS011;7731;50.720;6.912;2023-06-22T12:48:57;11.70;;;10.55;;
15256;SDS011;7731;50.720;6.912;2023-06-22T12:51:27;12.18;;;11.18;;
15256;SDS011;7731;50.720;6.912;2023-06-22T12:54:01;12.20;;;11.10;;
15256;SDS011;7731;50.720;6.912;2023-06-22T12:56:34;12.00;;;10.75;;
15256;SDS011;7731;50.720;6.912;2023-06-22T12:59:05;10.45;;;9.65;;
15256;SDS011;7731;50.720;6.912;2023-06-22T13:01:46;10.20;;;9.20;;
15256;SDS011;7731;50.720;6.912;2023-06-22T13:04:16;8.80;;;7.90;;
15256;SDS011;7731;50.720;6.912;2023-06-22T13:06:47;9.50;;;8.70;;
15256;SDS011;7731;50.720;6.912;2023-06-22T13:09:18;9.35;;;8.60;;
15256;SDS011;7731;50.720;6.912;2023-06-22T13:11:52;8.52;;;7.72;;
15256;SDS011;7731;50.720;6.912;2023-06-22T13:14:22;8.70;;;8.00;;
15256;SDS011;7731;50.720;6.912;2023-06-22T13:16:55;9.55;;;8.75;;
15256;SDS011;7731;50.720;6.912;2023-06-22T13:19:26;9.02;;;8.32;;
15256;SDS011;7731;50.720;6.912;2023-06-22T13:21:59;8.27;;;7.57;;
15256;SDS011;7731;50.720;6.912;2023-06-22T13:24:30;8.90;;;7.97;;
15256;SDS011;7731;50.720;6.912;2023-06-22T13:27:04;8.73;;;7.82;;
15256;SDS011;7731;50.720;6.912;2023-06-22T13:29:35;8.68;;;7.78;;
15256;SDS011;7731;50.720;6.912;2023-06-22T13:32:08;8.73;;;7.00;;
15256;SDS011;7731;50.720;6.912;2023-06-22T13:34:44;7.93;;;7.13;;
15256;SDS011;7731;50.720;6.912;2023-06-22T13:37:14;9.23;;;8.43;;
15256;SDS011;7731;50.720;6.912;2023-06-22T13:39:45;8.98;;;8.27;;
15256;SDS011;7731;50.720;6.912;2023-06-22T13:42:15;9.38;;;8.48;;
15256;SDS011;7731;50.720;6.912;2023-06-22T13:44:45;8.90;;;7.63;;
15256;SDS011;7731;50.720;6.912;2023-06-22T13:47:18;10.27;;;9.27;;
15256;SDS011;7731;50.720;6.912;2023-06-22T13:49:48;8.88;;;8.07;;
15256;SDS011;7731;50.720;6.912;2023-06-22T13:52:21;8.55;;;7.75;;
15256;SDS011;7731;50.720;6.912;2023-06-22T13:54:52;9.10;;;8.30;;
15256;SDS011;7731;50.720;6.912;2023-06-22T13:57:24;9.65;;;8.75;;
15256;SDS011;7731;50.720;6.912;2023-06-22T13:59:55;9.68;;;8.77;;
15256;SDS011;7731;50.720;6.912;2023-06-22T14:02:28;10.50;;;9.52;;
15256;SDS011;7731;50.720;6.912;2023-06-22T14:04:58;8.82;;;8.13;;
15256;SDS011;7731;50.720;6.912;2023-06-22T14:07:29;9.57;;;8.70;;
15256;SDS011;7731;50.720;6.912;2023-06-22T14:10:01;10.20;;;9.30;;
15256;SDS011;7731;50.720;6.912;2023-06-22T14:12:32;10.50;;;9.68;;
15256;SDS011;7731;50.720;6.912;2023-06-22T14:15:03;10.90;;;10.00;;
15256;SDS011;7731;50.720;6.912;2023-06-22T14:17:37;11.23;;;10.32;;
15256;SDS011;7731;50.720;6.912;2023-06-22T14:20:08;12.95;;;11.65;;
15256;SDS011;7731;50.720;6.912;2023-06-22T14:22:39;13.13;;;12.02;;
15256;SDS011;7731;50.720;6.912;2023-06-22T14:25:13;13.32;;;12.23;;
15256;SDS011;7731;50.720;6.912;2023-06-22T14:27:43;12.90;;;11.80;;
15256;SDS011;7731;50.720;6.912;2023-06-22T14:30:13;12.95;;;11.85;;
15256;SDS011;7731;50.720;6.912;2023-06-22T14:32:46;13.52;;;12.35;;
15256;SDS011;7731;50.720;6.912;2023-06-22T14:35:17;12.00;;;11.00;;
15256;SDS011;7731;50.720;6.912;2023-06-22T14:37:47;13.80;;;12.60;;
15256;SDS011;7731;50.720;6.912;2023-06-22T14:40:18;14.30;;;13.00;;
15256;SDS011;7731;50.720;6.912;2023-06-22T14:42:52;15.02;;;13.75;;
15256;SDS011;7731;50.720;6.912;2023-06-22T14:45:23;14.13;;;12.88;;
15256;SDS011;7731;50.720;6.912;2023-06-22T14:47:56;14.60;;;13.40;;
15256;SDS011;7731;50.720;6.912;2023-06-22T14:50:26;14.80;;;13.50;;
15256;SDS011;7731;50.720;6.912;2023-06-22T14:52:59;15.02;;;13.82;;
15256;SDS011;7731;50.720;6.912;2023-06-22T14:55:29;15.15;;;13.77;;
15256;SDS011;7731;50.720;6.912;2023-06-22T14:58:09;14.35;;;12.93;;
15256;SDS011;7731;50.720;6.912;2023-06-22T15:00:40;24.27;;;16.05;;
15256;SDS011;7731;50.720;6.912;2023-06-22T15:03:17;28.85;;;16.83;;
15256;SDS011;7731;50.720;6.912;2023-06-22T15:05:52;29.63;;;17.73;;
15256;SDS011;7731;50.720;6.912;2023-06-22T15:08:23;17.13;;;15.43;;
15256;SDS011;7731;50.720;6.912;2023-06-22T15:10:53;14.38;;;12.88;;
15256;SDS011;7731;50.720;6.912;2023-06-22T15:13:29;13.00;;;11.80;;
15256;SDS011;7731;50.720;6.912;2023-06-22T15:16:01;12.80;;;11.60;;
15256;SDS011;7731;50.720;6.912;2023-06-22T15:18:37;13.50;;;12.30;;
15256;SDS011;7731;50.720;6.912;2023-06-22T15:21:07;15.00;;;13.60;;
15256;SDS011;7731;50.720;6.912;2023-06-22T15:23:41;14.07;;;12.68;;
15256;SDS011;7731;50.720;6.912;2023-06-22T15:26:11;11.02;;;9.98;;